createdAt,value
2022-07-29T00:01:46.174Z,35.82
2022-07-29T00:04:15.389Z,36.14
2022-07-29T00:06:44.172Z,36.54
2022-07-29T00:09:12.742Z,36.27
2022-07-29T00:11:41.561Z,36.33
2022-07-29T00:14:10.118Z,36.49
2022-07-29T00:16:40.605Z,36.37
2022-07-29T00:19:09.269Z,36.32
2022-07-29T00:21:39.870Z,36.02
2022-07-29T00:24:09.000Z,36.04
2022-07-29T00:26:38.263Z,36.16
2022-07-29T00:29:33.007Z,35.90
2022-07-29T00:31:57.192Z,36.02
2022-07-29T00:34:43.429Z,36.24
2022-07-29T00:37:11.839Z,36.38
2022-07-29T00:39:40.422Z,36.58
2022-07-29T00:42:09.729Z,36.72
2022-07-29T00:44:41.746Z,36.64
2022-07-29T00:47:14.097Z,36.44
2022-07-29T00:49:43.285Z,36.37
2022-07-29T00:52:13.719Z,36.74
2022-07-29T00:54:45.751Z,36.67
2022-07-29T00:57:15.006Z,37.01
2022-07-29T00:59:43.504Z,36.69
2022-07-29T01:02:14.134Z,36.90
2022-07-29T01:04:43.585Z,36.48
2022-07-29T01:07:12.669Z,36.42
2022-07-29T01:09:45.315Z,36.57
2022-07-29T01:12:17.701Z,36.99
2022-07-29T01:14:47.621Z,37.04
2022-07-29T01:17:23.412Z,37.06
2022-07-29T01:20:00.597Z,37.10
2022-07-29T01:22:39.788Z,37.35
2022-07-29T01:25:29.217Z,37.76
2022-07-29T01:28:19.970Z,37.96
2022-07-29T01:30:56.368Z,37.90
2022-07-29T01:33:45.179Z,38.04
2022-07-29T01:36:17.152Z,38.19
2022-07-29T01:38:51.485Z,38.36
2022-07-29T01:41:23.798Z,38.35
2022-07-29T01:43:57.136Z,38.30
2022-07-29T01:46:33.745Z,38.28
2022-07-29T01:49:11.384Z,38.20
2022-07-29T01:51:48.726Z,38.41
2022-07-29T01:54:22.758Z,38.53
2022-07-29T01:56:55.842Z,38.52
2022-07-29T01:59:26.141Z,38.51
2022-07-29T02:02:00.324Z,38.52
2022-07-29T02:04:31.602Z,38.42
2022-07-29T02:07:04.102Z,38.52
2022-07-29T02:09:34.343Z,38.47
2022-07-29T02:12:04.466Z,38.48
2022-07-29T02:14:36.944Z,38.51
2022-07-29T02:17:07.309Z,38.74
2022-07-29T02:19:36.728Z,38.84
2022-07-29T02:22:07.601Z,38.93
2022-07-29T02:24:38.208Z,38.89
2022-07-29T02:27:07.304Z,38.96
2022-07-29T02:29:37.230Z,38.97
2022-07-29T02:32:10.834Z,38.92
2022-07-29T02:34:42.409Z,39.07
2022-07-29T02:37:12.494Z,38.93
2022-07-29T02:39:43.657Z,39.23
2022-07-29T02:42:16.072Z,39.29
2022-07-29T02:44:45.300Z,39.17
2022-07-29T02:47:21.510Z,39.11
2022-07-29T02:49:57.699Z,39.55
2022-07-29T02:52:32.901Z,39.69
2022-07-29T02:55:09.902Z,39.91
2022-07-29T02:57:54.119Z,40.04
2022-07-29T03:00:25.990Z,39.89
2022-07-29T03:02:59.732Z,39.83
2022-07-29T03:05:29.110Z,39.80
2022-07-29T03:08:01.190Z,39.79
2022-07-29T03:10:30.856Z,39.97
2022-07-29T03:13:00.169Z,40.00
2022-07-29T03:15:29.873Z,40.33
2022-07-29T03:18:01.202Z,40.44
2022-07-29T03:20:29.777Z,40.44
2022-07-29T03:22:58.338Z,40.70
2022-07-29T03:25:28.248Z,40.48
2022-07-29T03:27:57.948Z,40.64
2022-07-29T03:30:26.520Z,40.54
2022-07-29T03:32:58.114Z,40.29
2022-07-29T03:35:28.953Z,40.25
2022-07-29T03:37:57.386Z,40.20
2022-07-29T03:40:30.150Z,40.02
2022-07-29T03:43:00.512Z,39.96
2022-07-29T03:45:31.616Z,40.13
2022-07-29T03:48:04.271Z,40.13
2022-07-29T03:50:36.518Z,40.35
2022-07-29T03:53:05.688Z,40.58
2022-07-29T03:55:43.637Z,40.72
2022-07-29T03:58:14.942Z,40.81
2022-07-29T04:00:45.169Z,40.89
2022-07-29T04:03:15.906Z,40.63
2022-07-29T04:05:46.055Z,40.65
2022-07-29T04:08:14.572Z,40.67
2022-07-29T04:10:43.093Z,40.68
2022-07-29T04:13:11.669Z,40.65
2022-07-29T04:15:40.219Z,40.65
2022-07-29T04:18:09.025Z,40.74
2022-07-29T04:20:37.493Z,41.15
2022-07-29T04:23:07.370Z,41.32
2022-07-29T04:25:36.286Z,41.34
2022-07-29T04:28:05.070Z,41.49
2022-07-29T04:30:35.032Z,41.72
2022-07-29T04:33:04.768Z,41.83
2022-07-29T04:35:38.124Z,41.93
2022-07-29T04:38:15.604Z,42.22
2022-07-29T04:40:45.720Z,41.74
2022-07-29T04:43:16.117Z,41.86
2022-07-29T04:45:45.036Z,41.94
2022-07-29T04:48:13.529Z,41.99
2022-07-29T04:50:43.272Z,41.95
2022-07-29T04:53:13.397Z,41.89
2022-07-29T04:55:41.795Z,42.10
2022-07-29T04:58:10.542Z,42.19
2022-07-29T05:00:39.131Z,42.18
2022-07-29T05:03:08.082Z,42.25
2022-07-29T05:05:37.222Z,42.17
2022-07-29T05:08:06.133Z,42.19
2022-07-29T05:10:39.489Z,42.40
2022-07-29T05:13:08.762Z,42.77
2022-07-29T05:15:37.846Z,42.85
2022-07-29T05:18:07.043Z,42.75
2022-07-29T05:20:36.090Z,42.78
2022-07-29T05:23:04.864Z,42.80
2022-07-29T05:25:42.931Z,42.91
2022-07-29T05:28:14.812Z,43.08
2022-07-29T05:30:43.727Z,42.97
2022-07-29T05:33:34.663Z,43.04
2022-07-29T05:36:01.272Z,42.96
2022-07-29T05:38:30.379Z,42.83
2022-07-29T05:41:00.381Z,42.79
2022-07-29T05:43:30.704Z,42.63
2022-07-29T05:45:59.481Z,42.37
2022-07-29T05:48:28.255Z,42.15
2022-07-29T05:50:57.703Z,41.83
2022-07-29T05:53:26.497Z,41.75
2022-07-29T05:55:55.216Z,41.80
2022-07-29T05:58:23.792Z,41.75
2022-07-29T06:00:53.966Z,41.49
2022-07-29T06:03:22.769Z,41.35
2022-07-29T06:05:51.238Z,41.52
2022-07-29T06:08:19.997Z,41.56
2022-07-29T06:10:48.513Z,41.27
2022-07-29T06:13:17.533Z,41.17
2022-07-29T06:15:46.525Z,41.29
2022-07-29T06:18:16.625Z,41.01
2022-07-29T06:20:45.136Z,40.94
2022-07-29T06:23:13.720Z,40.97
2022-07-29T06:25:43.104Z,40.89
2022-07-29T06:28:12.176Z,40.70
2022-07-29T06:30:40.762Z,40.60
2022-07-29T06:33:09.495Z,40.52
2022-07-29T06:35:42.305Z,40.51
2022-07-29T06:38:29.898Z,40.31
2022-07-29T06:41:06.409Z,40.06
2022-07-29T06:43:50.349Z,39.68
2022-07-29T06:46:22.351Z,39.68
2022-07-29T06:48:51.600Z,39.72
2022-07-29T06:51:23.886Z,39.02
2022-07-29T06:54:00.141Z,38.81
2022-07-29T06:56:39.572Z,38.61
2022-07-29T06:59:09.863Z,38.47
2022-07-29T07:01:39.379Z,38.47
2022-07-29T07:04:10.058Z,38.81
2022-07-29T07:06:40.419Z,38.43
2022-07-29T07:09:09.618Z,38.61
2022-07-29T07:11:38.118Z,38.29
2022-07-29T07:14:06.589Z,38.28
2022-07-29T07:16:35.568Z,38.31
2022-07-29T07:19:04.123Z,38.26
2022-07-29T07:21:32.629Z,37.94
2022-07-29T07:24:03.193Z,37.55
2022-07-29T07:26:31.935Z,37.32
2022-07-29T07:29:01.535Z,37.14
2022-07-29T07:31:30.503Z,37.19
2022-07-29T07:34:00.186Z,37.27
2022-07-29T07:36:28.649Z,36.93
2022-07-29T07:38:57.510Z,37.01
2022-07-29T07:41:27.886Z,36.79
2022-07-29T07:44:01.370Z,36.80
2022-07-29T07:46:29.933Z,36.61
2022-07-29T07:48:58.466Z,36.65
2022-07-29T07:51:27.261Z,36.78
2022-07-29T07:53:55.668Z,37.01
2022-07-29T07:56:31.919Z,36.95
2022-07-29T07:59:03.340Z,37.08
2022-07-29T08:01:47.898Z,37.02
2022-07-29T08:04:26.588Z,36.82
2022-07-29T08:06:56.461Z,36.80
2022-07-29T08:09:30.358Z,36.71
2022-07-29T08:12:03.454Z,36.51
2022-07-29T08:14:33.101Z,36.81
2022-07-29T08:17:02.778Z,36.45
2022-07-29T08:19:31.261Z,36.63
2022-07-29T08:21:59.710Z,36.49
2022-07-29T08:24:53.406Z,36.31
2022-07-29T08:27:42.845Z,36.45
2022-07-29T08:30:13.318Z,36.45
2022-07-29T08:32:53.597Z,36.44
2022-07-29T08:35:22.692Z,36.34
2022-07-29T08:37:51.715Z,36.26
2022-07-29T08:40:20.372Z,36.33
2022-07-29T08:43:06.462Z,36.37
2022-07-29T08:45:48.130Z,36.24
2022-07-29T08:48:18.168Z,36.37
2022-07-29T08:50:48.932Z,36.17
2022-07-29T08:53:19.573Z,36.13
2022-07-29T08:55:50.662Z,36.13
2022-07-29T08:58:23.225Z,36.16
2022-07-29T09:00:56.682Z,36.12
2022-07-29T09:03:28.218Z,35.73
2022-07-29T09:05:56.981Z,35.69
2022-07-29T09:08:26.220Z,35.66
2022-07-29T09:10:57.189Z,35.68
2022-07-29T09:13:27.393Z,35.58
2022-07-29T09:15:55.967Z,35.56
2022-07-29T09:18:46.169Z,35.37
2022-07-29T09:21:33.233Z,35.11
2022-07-29T09:24:08.212Z,34.91
2022-07-29T09:26:38.837Z,34.72
2022-07-29T09:29:13.686Z,34.36
2022-07-29T09:31:45.209Z,34.38
2022-07-29T09:34:15.746Z,34.34
2022-07-29T09:36:45.932Z,34.30
2022-07-29T09:39:15.638Z,34.18
2022-07-29T09:41:51.484Z,34.43
2022-07-29T09:44:21.991Z,34.45
2022-07-29T09:46:59.243Z,34.51
2022-07-29T09:49:28.362Z,34.45
2022-07-29T09:52:08.909Z,34.51
2022-07-29T09:54:41.587Z,34.58
2022-07-29T09:57:13.781Z,34.50
2022-07-29T09:59:59.163Z,34.61
2022-07-29T10:02:32.942Z,34.92
2022-07-29T10:05:02.256Z,34.81
2022-07-29T10:07:50.581Z,34.49
2022-07-29T10:10:24.367Z,34.62
2022-07-29T10:12:55.173Z,34.03
2022-07-29T10:15:27.218Z,33.71
2022-07-29T10:17:57.631Z,33.29
2022-07-29T10:20:27.457Z,33.41
2022-07-29T10:22:57.002Z,33.37
2022-07-29T10:25:26.980Z,33.20
2022-07-29T10:27:56.734Z,33.24
2022-07-29T10:30:28.899Z,33.39
2022-07-29T10:33:18.147Z,33.12
2022-07-29T10:35:57.056Z,33.31
2022-07-29T10:38:48.226Z,33.09
2022-07-29T10:41:44.198Z,33.06
2022-07-29T10:44:19.168Z,33.02
2022-07-29T10:46:49.848Z,33.14
2022-07-29T10:49:19.607Z,33.34
2022-07-29T10:52:01.253Z,33.53
2022-07-29T10:54:48.684Z,33.96
2022-07-29T10:57:26.006Z,34.13
2022-07-29T11:00:30.583Z,34.33
2022-07-29T11:03:01.430Z,34.59
2022-07-29T11:05:59.757Z,35.39
2022-07-29T11:08:28.941Z,36.56
2022-07-29T11:11:44.010Z,39.70
2022-07-29T11:14:26.622Z,39.46
2022-07-29T11:17:07.586Z,41.74
2022-07-29T11:19:45.698Z,42.07
2022-07-29T11:22:36.247Z,44.02
2022-07-29T11:25:50.444Z,45.01
2022-07-29T11:28:22.707Z,45.26
2022-07-29T11:30:56.224Z,46.00
2022-07-29T11:33:54.526Z,46.17
2022-07-29T11:36:27.793Z,46.32
2022-07-29T11:39:36.662Z,47.41
2022-07-29T11:42:47.789Z,47.43
2022-07-29T11:45:42.563Z,47.63
2022-07-29T11:48:29.222Z,48.04
2022-07-29T11:51:00.927Z,47.73
2022-07-29T11:53:32.611Z,47.01
2022-07-29T11:56:03.708Z,47.25
2022-07-29T11:58:33.036Z,47.45
2022-07-29T12:01:05.065Z,47.77
2022-07-29T12:03:36.979Z,47.69
2022-07-29T12:09:14.579Z,48.51
2022-07-29T12:11:44.964Z,48.30
2022-07-29T12:14:28.798Z,45.75
2022-07-29T12:16:57.507Z,46.39
2022-07-29T12:19:27.327Z,46.18
2022-07-29T12:21:59.769Z,44.71
2022-07-29T12:24:45.542Z,44.16
2022-07-29T12:27:19.511Z,44.13
2022-07-29T12:30:00.802Z,43.71
2022-07-29T12:32:34.789Z,43.61
2022-07-29T12:35:07.037Z,42.88
2022-07-29T12:37:41.111Z,42.96
2022-07-29T12:40:15.094Z,42.44
2022-07-29T12:42:43.544Z,41.52
2022-07-29T12:45:12.670Z,40.65
2022-07-29T12:47:54.604Z,40.40
2022-07-29T12:50:26.305Z,40.32
2022-07-29T12:52:54.965Z,40.05
2022-07-29T12:55:43.333Z,39.67
2022-07-29T12:58:12.377Z,39.25
2022-07-29T13:00:41.133Z,38.61
2022-07-29T13:03:09.661Z,37.31
2022-07-29T13:05:48.872Z,36.05
2022-07-29T13:08:21.988Z,35.83
2022-07-29T13:10:52.288Z,35.94
2022-07-29T13:13:20.691Z,36.02
2022-07-29T13:16:07.310Z,35.70
2022-07-29T13:18:37.660Z,34.01
2022-07-29T13:21:14.821Z,34.11
2022-07-29T13:23:44.087Z,34.61
2022-07-29T13:26:14.541Z,34.72
2022-07-29T13:28:44.286Z,34.64
2022-07-29T13:31:13.545Z,34.07
2022-07-29T13:33:42.029Z,33.78
2022-07-29T13:36:11.077Z,32.46
2022-07-29T13:38:39.713Z,32.50
2022-07-29T13:41:08.482Z,32.21
2022-07-29T13:43:38.337Z,32.38
2022-07-29T13:46:07.259Z,32.19
2022-07-29T13:48:35.832Z,32.31
2022-07-29T13:51:04.416Z,32.58
2022-07-29T13:53:34.076Z,31.15
2022-07-29T13:56:02.808Z,30.77
2022-07-29T13:58:31.349Z,30.97
2022-07-29T14:01:01.833Z,30.69
2022-07-29T14:03:30.938Z,30.76
2022-07-29T14:06:01.305Z,31.46
2022-07-29T14:08:29.865Z,31.74
2022-07-29T14:10:58.264Z,31.07
2022-07-29T14:13:26.905Z,30.69
2022-07-29T14:15:55.737Z,30.69
2022-07-29T14:18:25.941Z,30.48
2022-07-29T14:20:54.755Z,30.50
2022-07-29T14:23:23.185Z,30.06
2022-07-29T14:25:51.895Z,30.08
2022-07-29T14:28:22.030Z,30.34
2022-07-29T14:30:50.571Z,30.12
2022-07-29T14:33:19.669Z,30.04
2022-07-29T14:35:49.872Z,30.17
2022-07-29T14:38:18.485Z,30.38
2022-07-29T14:40:47.703Z,30.62
2022-07-29T14:43:19.731Z,30.83
2022-07-29T14:45:50.586Z,31.00
2022-07-29T14:48:19.711Z,31.56
2022-07-29T14:50:49.821Z,31.64
2022-07-29T14:53:18.262Z,31.68
2022-07-29T14:55:47.361Z,31.56
2022-07-29T14:58:16.652Z,32.15
2022-07-29T15:00:45.460Z,32.12
2022-07-29T15:03:24.055Z,32.66
2022-07-29T15:05:54.348Z,32.45
2022-07-29T15:08:23.717Z,32.60
2022-07-29T15:10:52.578Z,33.08
2022-07-29T15:13:21.171Z,33.13
2022-07-29T15:15:50.379Z,33.88
2022-07-29T15:18:25.453Z,34.32
2022-07-29T15:20:56.197Z,34.62
2022-07-29T15:23:24.829Z,35.49
2022-07-29T15:25:53.286Z,36.55
2022-07-29T15:28:21.741Z,37.11
2022-07-29T15:30:50.325Z,38.17
2022-07-29T15:33:18.952Z,38.18
2022-07-29T15:35:47.422Z,38.16
2022-07-29T15:38:18.476Z,38.97
2022-07-29T15:40:47.665Z,39.89
2022-07-29T15:43:16.560Z,40.39
2022-07-29T15:46:06.589Z,41.05
2022-07-29T15:48:35.401Z,41.92
2022-07-29T15:51:03.779Z,42.42
2022-07-29T15:53:35.300Z,42.40
2022-07-29T15:56:04.688Z,42.94
2022-07-29T15:58:33.097Z,43.26
2022-07-29T16:01:01.618Z,43.97
2022-07-29T16:03:31.847Z,44.01
2022-07-29T16:06:00.410Z,44.57
2022-07-29T16:08:28.937Z,44.96
2022-07-29T16:10:58.850Z,45.40
2022-07-29T16:13:27.285Z,45.72
2022-07-29T16:16:02.618Z,46.21
2022-07-29T16:18:31.573Z,46.66
2022-07-29T16:21:00.434Z,46.95
2022-07-29T16:23:29.042Z,46.90
2022-07-29T16:26:00.811Z,47.85
2022-07-29T16:28:29.850Z,48.33
2022-07-29T16:30:58.412Z,48.48
2022-07-29T16:33:27.918Z,48.57
2022-07-29T16:35:56.549Z,48.44
2022-07-29T16:38:25.054Z,48.32
2022-07-29T16:40:53.978Z,48.46
2022-07-29T16:43:23.841Z,48.79
2022-07-29T16:45:52.386Z,48.83
2022-07-29T16:48:20.912Z,48.88
2022-07-29T16:50:52.001Z,49.37
2022-07-29T16:53:20.676Z,49.71
2022-07-29T16:55:49.211Z,49.82
2022-07-29T16:58:17.625Z,49.54
2022-07-29T17:00:47.589Z,49.30
2022-07-29T17:03:16.134Z,49.19
2022-07-29T17:05:52.526Z,49.15
2022-07-29T17:08:23.292Z,49.17
2022-07-29T17:10:51.969Z,49.32
2022-07-29T17:13:21.229Z,49.39
2022-07-29T17:15:51.652Z,49.49
2022-07-29T17:18:20.312Z,49.30
2022-07-29T17:20:48.870Z,49.09
2022-07-29T17:23:17.259Z,49.00
2022-07-29T17:25:45.790Z,48.89
2022-07-29T17:28:14.570Z,48.90
2022-07-29T17:30:43.128Z,49.40
2022-07-29T17:33:13.440Z,49.69
2022-07-29T17:35:58.898Z,49.88
2022-07-29T17:38:27.337Z,49.93
2022-07-29T17:40:56.568Z,50.22
2022-07-29T17:43:25.044Z,50.42
2022-07-29T17:45:55.875Z,50.15
2022-07-29T17:48:29.525Z,49.96
2022-07-29T17:50:58.488Z,49.78
2022-07-29T17:53:26.942Z,49.61
2022-07-29T17:55:56.419Z,49.45
2022-07-29T17:58:24.906Z,49.60
2022-07-29T18:00:53.940Z,49.69
2022-07-29T18:03:22.829Z,49.60
2022-07-29T18:05:52.861Z,49.59
2022-07-29T18:08:21.330Z,49.87
2022-07-29T18:10:50.113Z,50.36
2022-07-29T18:13:18.795Z,50.62
2022-07-29T18:15:48.032Z,50.97
2022-07-29T18:18:18.493Z,51.32
2022-07-29T18:20:47.583Z,52.29
2022-07-29T18:23:17.809Z,52.77
2022-07-29T18:25:46.602Z,53.08
2022-07-29T18:28:15.041Z,53.72
2022-07-29T18:30:43.553Z,54.03
2022-07-29T18:33:23.015Z,54.27
2022-07-29T18:36:11.061Z,54.23
2022-07-29T18:38:42.044Z,54.36
2022-07-29T18:41:10.626Z,53.98
2022-07-29T18:43:39.186Z,54.18
2022-07-29T18:46:07.832Z,54.58
2022-07-29T18:48:36.602Z,55.17
2022-07-29T18:51:09.480Z,55.49
2022-07-29T18:53:38.498Z,56.07
2022-07-29T18:56:08.591Z,56.99
2022-07-29T18:58:38.420Z,57.33
2022-07-29T19:01:07.361Z,57.95
2022-07-29T19:03:36.250Z,57.84
2022-07-29T19:06:04.939Z,58.31
2022-07-29T19:08:33.527Z,58.57
2022-07-29T19:11:02.069Z,58.82
2022-07-29T19:13:32.222Z,59.33
2022-07-29T19:16:00.992Z,59.53
2022-07-29T19:18:29.820Z,60.02
2022-07-29T19:20:58.402Z,60.31
2022-07-29T19:23:26.970Z,60.81
2022-07-29T19:25:55.349Z,60.93
2022-07-29T19:28:24.104Z,60.80
2022-07-29T19:30:54.905Z,60.92
2022-07-29T19:33:23.425Z,60.66
2022-07-29T19:35:55.003Z,60.72
2022-07-29T19:38:24.275Z,61.09
2022-07-29T19:40:53.083Z,61.07
2022-07-29T19:43:50.378Z,61.01
2022-07-29T19:46:11.753Z,61.05
2022-07-29T19:48:40.493Z,61.54
2022-07-29T19:51:09.256Z,61.20
2022-07-29T19:53:37.870Z,61.37
2022-07-29T19:56:07.217Z,61.07
2022-07-29T19:58:37.512Z,60.98
2022-07-29T20:01:10.780Z,61.00
2022-07-29T20:12:23.288Z,60.37
2022-07-29T20:20:16.056Z,60.14
2022-07-29T20:22:47.875Z,60.08
2022-07-29T20:40:26.177Z,60.12
2022-07-29T20:42:54.874Z,60.01
2022-07-29T20:45:25.620Z,60.54
2022-07-29T20:47:54.668Z,60.52
2022-07-29T20:56:59.735Z,60.87
2022-07-29T20:59:31.271Z,60.93
2022-07-29T21:02:00.965Z,60.84
2022-07-29T21:04:32.778Z,60.88
2022-07-29T21:07:03.073Z,60.90
2022-07-29T21:09:34.193Z,61.00
2022-07-29T21:12:06.344Z,60.85
2022-07-29T21:14:48.970Z,60.99
2022-07-29T21:17:25.946Z,61.10
2022-07-29T21:19:59.410Z,61.43
2022-07-29T21:22:29.613Z,61.42
2022-07-29T21:25:00.328Z,61.47
2022-07-29T21:31:06.647Z,61.44
2022-07-29T21:33:35.537Z,61.84
2022-07-29T21:38:54.485Z,61.76
2022-07-29T21:41:22.889Z,61.53
2022-07-29T21:43:52.763Z,61.60
2022-07-29T21:46:24.549Z,61.74
2022-07-29T21:48:53.202Z,61.67
2022-07-29T21:51:21.733Z,61.42
2022-07-29T21:53:53.035Z,61.33
2022-07-29T21:56:23.622Z,61.27
2022-07-29T21:58:57.845Z,61.28
2022-07-29T22:01:26.878Z,61.32
2022-07-29T22:03:55.471Z,61.32
2022-07-29T22:06:24.261Z,61.18
2022-07-29T22:08:52.703Z,61.26
2022-07-29T22:11:21.604Z,61.48
2022-07-29T22:13:49.987Z,61.46
2022-07-29T22:16:20.163Z,61.68
2022-07-29T22:18:49.350Z,61.71
2022-07-29T22:21:17.850Z,61.61
2022-07-29T22:23:46.335Z,61.98
2022-07-29T22:26:14.870Z,61.92
2022-07-29T22:28:43.974Z,62.01
2022-07-29T22:31:12.591Z,62.18
2022-07-29T22:33:42.816Z,61.88
2022-07-29T22:36:11.681Z,61.90
2022-07-29T22:38:40.129Z,61.50
2022-07-29T22:41:09.093Z,61.65
2022-07-29T22:43:39.861Z,61.54
2022-07-29T22:46:10.534Z,61.39
2022-07-29T22:48:41.903Z,61.45
2022-07-29T22:51:10.503Z,61.67
2022-07-29T22:53:39.122Z,61.66
2022-07-29T22:56:07.762Z,61.62
2022-07-29T22:58:36.277Z,61.56
2022-07-29T23:01:04.921Z,61.51
2022-07-29T23:03:33.507Z,61.55
2022-07-29T23:06:03.460Z,61.61
2022-07-29T23:08:32.020Z,61.68
2022-07-29T23:11:00.927Z,61.35
2022-07-29T23:13:29.375Z,61.61
2022-07-29T23:15:58.211Z,61.75
2022-07-29T23:18:26.899Z,61.70
2022-07-29T23:20:55.565Z,61.67
2022-07-29T23:23:25.432Z,61.64
2022-07-29T23:26:00.865Z,61.62
2022-07-29T23:28:29.404Z,61.85
2022-07-29T23:30:58.057Z,61.72
2022-07-29T23:33:26.545Z,62.01
2022-07-29T23:35:55.470Z,61.92
2022-07-29T23:38:25.586Z,62.05
2022-07-29T23:40:54.095Z,62.29
2022-07-29T23:43:22.943Z,62.29
2022-07-29T23:45:51.693Z,62.29
2022-07-29T23:48:22.221Z,62.47
2022-07-29T23:50:50.879Z,62.02
2022-07-29T23:53:19.461Z,62.00
2022-07-29T23:55:49.417Z,61.76
2022-07-29T23:58:17.890Z,61.98
